< Typhoon 196710 1967 Season Typhoon 196712 >
Typhoon 196711 (ELLEN)
General InformationTrack Information on Google Maps || Disaster Info.ResourceGoogle EarthGE AnimationAtom FeedGeoJSON
Detalied Best Track (Time Zone = UTC)
Year Month Day Hour Lat. Long. Pressure (hPa) Wind (kt) Class Image Chart
1967 7 27 12 19.2 150.3 998 0 2 -- Chart
1967 7 27 18 20.0 150.5 996 0 2 -- Chart
1967 7 28 00 21.0 150.8 992 0 9 -- Chart
1967 7 28 06 22.0 151.2 990 0 9 -- Chart
1967 7 28 12 22.7 151.6 988 0 9 -- Chart
1967 7 28 18 23.4 151.9 988 0 9 -- Chart
1967 7 29 00 23.6 151.9 986 0 9 -- Chart
1967 7 29 06 23.6 152.3 984 0 9 -- Chart
1967 7 29 12 23.6 152.5 984 0 9 -- Chart
1967 7 29 18 23.1 152.9 984 0 9 -- Chart
1967 7 30 00 22.6 153.4 982 0 9 -- Chart
1967 7 30 06 22.3 154.2 978 0 9 -- Chart
1967 7 30 12 22.6 155.4 976 0 9 -- Chart
1967 7 30 18 23.0 156.2 974 0 9 -- Chart
1967 7 31 00 23.5 157.2 970 0 9 -- Chart
1967 7 31 06 24.7 157.3 970 0 9 -- Chart
1967 7 31 12 25.7 157.1 972 0 9 -- Chart
1967 7 31 18 26.6 156.4 972 0 9 -- Chart
1967 8 1 00 27.9 156.5 975 0 9 -- Chart
1967 8 1 06 29.2 157.3 978 0 9 -- Chart
1967 8 1 12 30.6 156.3 978 0 9 -- Chart
1967 8 1 18 32.0 156.0 978 0 9 -- Chart
1967 8 2 00 33.9 155.1 978 0 9 -- Chart
1967 8 2 06 35.6 154.3 978 0 9 -- Chart
1967 8 2 12 37.3 153.0 980 0 9 -- Chart
1967 8 2 18 38.9 151.9 982 0 9 -- Chart
1967 8 3 00 40.4 150.4 984 0 9 -- Chart
1967 8 3 06 42.8 150.3 986 0 9 -- Chart
1967 8 3 12 45.2 151.2 986 0 9 -- Chart
1967 8 3 18 47.0 151.5 990 0 9 -- Chart
1967 8 4 00 50.0 152.0 992 0 9 -- Chart
1967 8 4 06 53.0 152.5 992 0 9 -- Chart
1967 8 4 12 55.5 154.8 994 0 9 -- Chart
1967 8 4 18 57.0 158.9 994 0 6 -- Chart
1967 8 5 00 58.0 163.0 996 0 6 -- Chart
1967 8 5 06 58.0 168.0 996 0 6 -- Chart
1967 8 5 12 58.0 173.0 996 0 6 -- Chart
1967 8 5 18 57.0 177.1 996 0 6 -- Chart
1967 8 6 00 56.0 182.0 996 0 6 -- Chart
Japan Meteorological Agency Best Track Data | Correction Date : 1991-07-16
< Typhoon 196710 1967 Season Typhoon 196712 >

Help